sensor_id;sensor_type;location;lat;lon;timestamp;temperature;humidity
42261;DHT22;27926;48.062;7.474;2022-12-18T00:01:32;-6.00;99.90
42261;DHT22;27926;48.062;7.474;2022-12-18T00:03:58;-6.00;99.90
42261;DHT22;27926;48.062;7.474;2022-12-18T00:06:24;-5.90;99.90
42261;DHT22;27926;48.062;7.474;2022-12-18T00:08:49;-5.90;99.90
42261;DHT22;27926;48.062;7.474;2022-12-18T00:11:16;-5.90;99.90
42261;DHT22;27926;48.062;7.474;2022-12-18T00:13:41;-5.90;99.90
42261;DHT22;27926;48.062;7.474;2022-12-18T00:16:13;-5.90;99.90
42261;DHT22;27926;48.062;7.474;2022-12-18T00:18:38;-5.90;99.90
42261;DHT22;27926;48.062;7.474;2022-12-18T00:21:06;-5.90;99.90
42261;DHT22;27926;48.062;7.474;2022-12-18T00:23:33;-5.90;99.90
42261;DHT22;27926;48.062;7.474;2022-12-18T00:26:01;-5.90;99.90
42261;DHT22;27926;48.062;7.474;2022-12-18T00:28:25;-5.90;99.90
42261;DHT22;27926;48.062;7.474;2022-12-18T00:30:50;-5.90;99.90
42261;DHT22;27926;48.062;7.474;2022-12-18T00:33:15;-5.90;99.90
42261;DHT22;27926;48.062;7.474;2022-12-18T00:35:40;-5.90;99.90
42261;DHT22;27926;48.062;7.474;2022-12-18T00:38:04;-5.90;99.90
42261;DHT22;27926;48.062;7.474;2022-12-18T00:40:30;-5.90;99.90
42261;DHT22;27926;48.062;7.474;2022-12-18T00:42:55;-6.00;99.90
42261;DHT22;27926;48.062;7.474;2022-12-18T00:45:19;-6.00;99.90
42261;DHT22;27926;48.062;7.474;2022-12-18T00:47:44;-5.90;99.90
42261;DHT22;27926;48.062;7.474;2022-12-18T00:50:09;-6.00;99.90
42261;DHT22;27926;48.062;7.474;2022-12-18T00:52:34;-6.00;99.90
42261;DHT22;27926;48.062;7.474;2022-12-18T00:54:59;-6.10;99.90
42261;DHT22;27926;48.062;7.474;2022-12-18T00:57:23;-6.10;99.90
42261;DHT22;27926;48.062;7.474;2022-12-18T00:59:48;-6.00;99.90
42261;DHT22;27926;48.062;7.474;2022-12-18T01:02:12;-6.00;99.90
42261;DHT22;27926;48.062;7.474;2022-12-18T01:04:37;-6.10;99.90
42261;DHT22;27926;48.062;7.474;2022-12-18T01:07:02;-6.10;99.90
42261;DHT22;27926;48.062;7.474;2022-12-18T01:09:26;-6.00;99.90
42261;DHT22;27926;48.062;7.474;2022-12-18T01:11:51;-6.00;99.90
42261;DHT22;27926;48.062;7.474;2022-12-18T01:14:15;-6.00;99.90
42261;DHT22;27926;48.062;7.474;2022-12-18T01:16:40;-6.10;99.90
42261;DHT22;27926;48.062;7.474;2022-12-18T01:19:04;-6.10;99.90
42261;DHT22;27926;48.062;7.474;2022-12-18T01:21:29;-6.00;99.90
42261;DHT22;27926;48.062;7.474;2022-12-18T01:23:55;-6.00;99.90
42261;DHT22;27926;48.062;7.474;2022-12-18T01:26:20;-6.00;99.90
42261;DHT22;27926;48.062;7.474;2022-12-18T01:28:45;-5.90;99.90
42261;DHT22;27926;48.062;7.474;2022-12-18T01:31:42;-5.90;99.90
42261;DHT22;27926;48.062;7.474;2022-12-18T01:34:06;-5.90;99.90
42261;DHT22;27926;48.062;7.474;2022-12-18T01:36:33;-6.00;99.90
42261;DHT22;27926;48.062;7.474;2022-12-18T01:39:07;-6.00;99.90
42261;DHT22;27926;48.062;7.474;2022-12-18T01:41:33;-5.90;99.90
42261;DHT22;27926;48.062;7.474;2022-12-18T01:49:47;-5.80;99.90
42261;DHT22;27926;48.062;7.474;2022-12-18T01:52:13;-5.80;99.90
42261;DHT22;27926;48.062;7.474;2022-12-18T01:54:38;-5.70;99.90
42261;DHT22;27926;48.062;7.474;2022-12-18T01:57:03;-5.70;99.90
42261;DHT22;27926;48.062;7.474;2022-12-18T01:59:28;-5.60;99.90
42261;DHT22;27926;48.062;7.474;2022-12-18T02:01:56;-5.60;99.90
42261;DHT22;27926;48.062;7.474;2022-12-18T02:04:21;-5.60;99.90
42261;DHT22;27926;48.062;7.474;2022-12-18T02:06:55;-5.60;99.90
42261;DHT22;27926;48.062;7.474;2022-12-18T02:09:37;-5.60;99.90
42261;DHT22;27926;48.062;7.474;2022-12-18T02:12:16;-5.60;99.90
42261;DHT22;27926;48.062;7.474;2022-12-18T02:15:03;-5.80;99.90
42261;DHT22;27926;48.062;7.474;2022-12-18T02:17:38;-5.90;99.90
42261;DHT22;27926;48.062;7.474;2022-12-18T02:20:32;-5.80;99.90
42261;DHT22;27926;48.062;7.474;2022-12-18T02:28:32;-5.70;99.90
42261;DHT22;27926;48.062;7.474;2022-12-18T02:31:01;-5.60;99.90
42261;DHT22;27926;48.062;7.474;2022-12-18T02:33:28;-5.60;99.90
42261;DHT22;27926;48.062;7.474;2022-12-18T02:35:55;-5.60;99.90
42261;DHT22;27926;48.062;7.474;2022-12-18T02:38:22;-5.60;99.90
42261;DHT22;27926;48.062;7.474;2022-12-18T02:40:49;-5.50;99.90
42261;DHT22;27926;48.062;7.474;2022-12-18T02:43:15;-5.50;99.90
42261;DHT22;27926;48.062;7.474;2022-12-18T02:45:56;-5.50;99.90
42261;DHT22;27926;48.062;7.474;2022-12-18T02:48:28;-5.40;99.90
42261;DHT22;27926;48.062;7.474;2022-12-18T02:51:17;-5.30;99.90
42261;DHT22;27926;48.062;7.474;2022-12-18T02:53:52;-5.40;99.90
42261;DHT22;27926;48.062;7.474;2022-12-18T02:56:31;-5.40;99.90
42261;DHT22;27926;48.062;7.474;2022-12-18T03:01:44;-5.30;99.90
42261;DHT22;27926;48.062;7.474;2022-12-18T03:04:25;-5.30;99.90
42261;DHT22;27926;48.062;7.474;2022-12-18T03:06:57;-5.30;99.90
42261;DHT22;27926;48.062;7.474;2022-12-18T03:09:32;-5.40;99.90
42261;DHT22;27926;48.062;7.474;2022-12-18T03:12:02;-5.40;99.90
42261;DHT22;27926;48.062;7.474;2022-12-18T03:15:00;-5.50;99.90
42261;DHT22;27926;48.062;7.474;2022-12-18T03:17:27;-5.50;99.90
42261;DHT22;27926;48.062;7.474;2022-12-18T03:19:57;-5.60;99.90
42261;DHT22;27926;48.062;7.474;2022-12-18T03:22:24;-5.70;99.90
42261;DHT22;27926;48.062;7.474;2022-12-18T03:24:51;-5.80;99.90
42261;DHT22;27926;48.062;7.474;2022-12-18T03:27:18;-5.90;99.90
42261;DHT22;27926;48.062;7.474;2022-12-18T03:30:04;-4.20;99.90
42261;DHT22;27926;48.062;7.474;2022-12-18T03:33:20;-5.90;99.90
42261;DHT22;27926;48.062;7.474;2022-12-18T03:35:25;-5.90;99.90
42261;DHT22;27926;48.062;7.474;2022-12-18T03:37:50;-5.90;99.90
42261;DHT22;27926;48.062;7.474;2022-12-18T03:40:15;-6.00;99.90
42261;DHT22;27926;48.062;7.474;2022-12-18T03:42:52;-6.00;99.90
42261;DHT22;27926;48.062;7.474;2022-12-18T03:45:27;-6.00;99.90
42261;DHT22;27926;48.062;7.474;2022-12-18T03:48:06;-6.00;99.90
42261;DHT22;27926;48.062;7.474;2022-12-18T03:50:35;-5.90;99.90
42261;DHT22;27926;48.062;7.474;2022-12-18T03:53:17;-5.80;99.90
42261;DHT22;27926;48.062;7.474;2022-12-18T03:55:44;-5.90;99.90
42261;DHT22;27926;48.062;7.474;2022-12-18T03:58:12;-5.90;99.90
42261;DHT22;27926;48.062;7.474;2022-12-18T04:00:38;-5.80;99.90
42261;DHT22;27926;48.062;7.474;2022-12-18T04:03:04;-5.70;99.90
42261;DHT22;27926;48.062;7.474;2022-12-18T04:05:30;-5.70;99.90
42261;DHT22;27926;48.062;7.474;2022-12-18T04:07:57;-5.70;99.90
42261;DHT22;27926;48.062;7.474;2022-12-18T04:10:22;-5.60;99.90
42261;DHT22;27926;48.062;7.474;2022-12-18T04:12:46;-5.60;99.90
42261;DHT22;27926;48.062;7.474;2022-12-18T04:15:12;-5.50;99.90
42261;DHT22;27926;48.062;7.474;2022-12-18T04:17:37;-5.60;99.90
42261;DHT22;27926;48.062;7.474;2022-12-18T04:20:02;-5.60;99.90
42261;DHT22;27926;48.062;7.474;2022-12-18T04:22:27;-5.50;99.90
42261;DHT22;27926;48.062;7.474;2022-12-18T04:24:52;-5.50;99.90
42261;DHT22;27926;48.062;7.474;2022-12-18T04:27:17;-5.40;99.90
42261;DHT22;27926;48.062;7.474;2022-12-18T04:29:42;-5.40;99.90
42261;DHT22;27926;48.062;7.474;2022-12-18T04:32:07;-5.30;99.90
42261;DHT22;27926;48.062;7.474;2022-12-18T04:34:32;-5.30;99.90
42261;DHT22;27926;48.062;7.474;2022-12-18T04:36:56;-5.30;99.90
42261;DHT22;27926;48.062;7.474;2022-12-18T04:39:21;-5.30;99.90
42261;DHT22;27926;48.062;7.474;2022-12-18T04:41:45;-5.30;99.90
42261;DHT22;27926;48.062;7.474;2022-12-18T04:44:10;-5.30;99.90
42261;DHT22;27926;48.062;7.474;2022-12-18T04:46:35;-5.20;99.90
42261;DHT22;27926;48.062;7.474;2022-12-18T04:49:00;-5.20;99.90
42261;DHT22;27926;48.062;7.474;2022-12-18T04:51:24;-5.20;99.90
42261;DHT22;27926;48.062;7.474;2022-12-18T04:53:49;-5.20;99.90
42261;DHT22;27926;48.062;7.474;2022-12-18T04:56:15;-5.20;99.90
42261;DHT22;27926;48.062;7.474;2022-12-18T04:58:41;-5.20;99.90
42261;DHT22;27926;48.062;7.474;2022-12-18T05:01:06;-5.20;99.90
42261;DHT22;27926;48.062;7.474;2022-12-18T05:03:31;-5.20;99.90
42261;DHT22;27926;48.062;7.474;2022-12-18T05:05:56;-5.10;99.90
42261;DHT22;27926;48.062;7.474;2022-12-18T05:08:21;-5.10;99.90
42261;DHT22;27926;48.062;7.474;2022-12-18T05:10:45;-5.10;99.90
42261;DHT22;27926;48.062;7.474;2022-12-18T05:13:10;-5.10;99.90
42261;DHT22;27926;48.062;7.474;2022-12-18T05:15:34;-5.20;99.90
42261;DHT22;27926;48.062;7.474;2022-12-18T05:18:00;-5.20;99.90
42261;DHT22;27926;48.062;7.474;2022-12-18T05:20:25;-5.20;99.90
42261;DHT22;27926;48.062;7.474;2022-12-18T05:22:50;-5.20;99.90
42261;DHT22;27926;48.062;7.474;2022-12-18T05:25:15;-5.20;99.90
42261;DHT22;27926;48.062;7.474;2022-12-18T05:27:39;-5.20;99.90
42261;DHT22;27926;48.062;7.474;2022-12-18T05:30:04;-5.20;99.90
42261;DHT22;27926;48.062;7.474;2022-12-18T05:32:29;-5.20;99.90
42261;DHT22;27926;48.062;7.474;2022-12-18T05:34:54;-5.20;99.90
42261;DHT22;27926;48.062;7.474;2022-12-18T05:37:18;-5.10;99.90
42261;DHT22;27926;48.062;7.474;2022-12-18T05:39:43;-5.10;99.90
42261;DHT22;27926;48.062;7.474;2022-12-18T05:42:08;-5.10;99.90
42261;DHT22;27926;48.062;7.474;2022-12-18T05:44:32;-5.10;99.90
42261;DHT22;27926;48.062;7.474;2022-12-18T05:46:57;-5.10;99.90
42261;DHT22;27926;48.062;7.474;2022-12-18T05:49:21;-5.00;99.90
42261;DHT22;27926;48.062;7.474;2022-12-18T05:51:46;-5.00;99.90
42261;DHT22;27926;48.062;7.474;2022-12-18T05:54:11;-5.00;99.90
42261;DHT22;27926;48.062;7.474;2022-12-18T05:56:35;-5.00;99.90
42261;DHT22;27926;48.062;7.474;2022-12-18T05:59:00;-4.90;99.90
42261;DHT22;27926;48.062;7.474;2022-12-18T06:01:26;-4.90;99.90
42261;DHT22;27926;48.062;7.474;2022-12-18T06:03:50;-4.90;99.90
42261;DHT22;27926;48.062;7.474;2022-12-18T06:06:20;-5.00;99.90
42261;DHT22;27926;48.062;7.474;2022-12-18T06:08:46;-5.00;99.90
42261;DHT22;27926;48.062;7.474;2022-12-18T06:11:11;-5.00;99.90
42261;DHT22;27926;48.062;7.474;2022-12-18T06:13:37;-5.10;99.90
42261;DHT22;27926;48.062;7.474;2022-12-18T06:16:05;-5.20;99.90
42261;DHT22;27926;48.062;7.474;2022-12-18T06:18:30;-5.30;99.90
42261;DHT22;27926;48.062;7.474;2022-12-18T06:20:56;-5.30;99.90
42261;DHT22;27926;48.062;7.474;2022-12-18T06:23:21;-5.30;99.90
42261;DHT22;27926;48.062;7.474;2022-12-18T06:25:45;-5.20;99.90
42261;DHT22;27926;48.062;7.474;2022-12-18T06:28:10;-5.10;99.90
42261;DHT22;27926;48.062;7.474;2022-12-18T06:30:34;-5.10;99.90
42261;DHT22;27926;48.062;7.474;2022-12-18T06:33:00;-5.00;99.90
42261;DHT22;27926;48.062;7.474;2022-12-18T06:35:25;-5.00;99.90
42261;DHT22;27926;48.062;7.474;2022-12-18T06:37:49;-4.90;99.90
42261;DHT22;27926;48.062;7.474;2022-12-18T06:40:14;-4.90;99.90
42261;DHT22;27926;48.062;7.474;2022-12-18T06:42:39;-4.90;99.90
42261;DHT22;27926;48.062;7.474;2022-12-18T06:45:03;-4.80;99.90
42261;DHT22;27926;48.062;7.474;2022-12-18T06:47:28;-4.80;99.90
42261;DHT22;27926;48.062;7.474;2022-12-18T06:49:53;-4.80;99.90
42261;DHT22;27926;48.062;7.474;2022-12-18T06:52:17;-4.80;99.90
42261;DHT22;27926;48.062;7.474;2022-12-18T06:54:42;-4.80;99.90
42261;DHT22;27926;48.062;7.474;2022-12-18T06:57:06;-4.80;99.90
42261;DHT22;27926;48.062;7.474;2022-12-18T06:59:31;-4.80;99.90
42261;DHT22;27926;48.062;7.474;2022-12-18T07:01:56;-4.80;99.90
42261;DHT22;27926;48.062;7.474;2022-12-18T07:04:21;-4.80;99.90
42261;DHT22;27926;48.062;7.474;2022-12-18T07:06:46;-4.80;99.90
42261;DHT22;27926;48.062;7.474;2022-12-18T07:09:11;-4.80;99.90
42261;DHT22;27926;48.062;7.474;2022-12-18T07:11:35;-4.80;99.90
42261;DHT22;27926;48.062;7.474;2022-12-18T07:14:00;-4.80;99.90
42261;DHT22;27926;48.062;7.474;2022-12-18T07:16:25;-4.80;99.90
42261;DHT22;27926;48.062;7.474;2022-12-18T07:18:49;-4.70;99.90
42261;DHT22;27926;48.062;7.474;2022-12-18T07:21:16;-4.70;99.90
42261;DHT22;27926;48.062;7.474;2022-12-18T07:23:41;-4.70;99.90
42261;DHT22;27926;48.062;7.474;2022-12-18T07:26:11;-4.70;99.90
42261;DHT22;27926;48.062;7.474;2022-12-18T07:28:36;-4.70;99.90
42261;DHT22;27926;48.062;7.474;2022-12-18T07:31:13;-4.70;99.90
42261;DHT22;27926;48.062;7.474;2022-12-18T07:33:39;-4.70;99.90
42261;DHT22;27926;48.062;7.474;2022-12-18T07:36:05;-4.70;99.90
42261;DHT22;27926;48.062;7.474;2022-12-18T07:38:30;-4.70;99.90
42261;DHT22;27926;48.062;7.474;2022-12-18T07:40:59;-4.70;99.90
42261;DHT22;27926;48.062;7.474;2022-12-18T07:43:24;-4.60;99.90
42261;DHT22;27926;48.062;7.474;2022-12-18T07:45:49;-4.60;99.90
42261;DHT22;27926;48.062;7.474;2022-12-18T07:48:14;-4.60;99.90
42261;DHT22;27926;48.062;7.474;2022-12-18T07:50:39;-4.60;99.90
42261;DHT22;27926;48.062;7.474;2022-12-18T07:53:04;-4.60;99.90
42261;DHT22;27926;48.062;7.474;2022-12-18T07:55:30;-4.50;99.90
42261;DHT22;27926;48.062;7.474;2022-12-18T07:57:54;-4.50;99.90
42261;DHT22;27926;48.062;7.474;2022-12-18T08:00:19;-4.50;99.90
42261;DHT22;27926;48.062;7.474;2022-12-18T08:02:44;-4.50;99.90
42261;DHT22;27926;48.062;7.474;2022-12-18T08:05:08;-4.50;99.90
42261;DHT22;27926;48.062;7.474;2022-12-18T08:07:33;-4.50;99.90
42261;DHT22;27926;48.062;7.474;2022-12-18T08:09:58;-4.40;99.90
42261;DHT22;27926;48.062;7.474;2022-12-18T08:12:22;-4.50;99.90
42261;DHT22;27926;48.062;7.474;2022-12-18T08:14:47;-4.40;99.90
42261;DHT22;27926;48.062;7.474;2022-12-18T08:17:15;-4.50;99.90
42261;DHT22;27926;48.062;7.474;2022-12-18T08:19:39;-4.90;99.90
42261;DHT22;27926;48.062;7.474;2022-12-18T08:22:04;-4.40;99.90
42261;DHT22;27926;48.062;7.474;2022-12-18T08:24:28;-4.40;99.90
42261;DHT22;27926;48.062;7.474;2022-12-18T08:26:53;-4.30;99.90
42261;DHT22;27926;48.062;7.474;2022-12-18T08:29:17;-4.30;99.90
42261;DHT22;27926;48.062;7.474;2022-12-18T08:31:42;-4.20;99.90
42261;DHT22;27926;48.062;7.474;2022-12-18T08:34:08;-4.20;99.90
42261;DHT22;27926;48.062;7.474;2022-12-18T08:36:32;-4.10;99.90
42261;DHT22;27926;48.062;7.474;2022-12-18T08:38:57;-4.10;99.90
42261;DHT22;27926;48.062;7.474;2022-12-18T08:41:22;-4.10;99.90
42261;DHT22;27926;48.062;7.474;2022-12-18T08:43:47;-4.10;99.90
42261;DHT22;27926;48.062;7.474;2022-12-18T08:46:40;-4.00;99.90
42261;DHT22;27926;48.062;7.474;2022-12-18T08:49:06;-3.90;99.90
42261;DHT22;27926;48.062;7.474;2022-12-18T08:51:31;-3.90;99.90
42261;DHT22;27926;48.062;7.474;2022-12-18T08:53:56;-3.80;99.90
42261;DHT22;27926;48.062;7.474;2022-12-18T08:56:21;-3.70;99.90
42261;DHT22;27926;48.062;7.474;2022-12-18T08:58:46;-3.60;99.90
42261;DHT22;27926;48.062;7.474;2022-12-18T09:01:12;-3.70;99.90
42261;DHT22;27926;48.062;7.474;2022-12-18T09:03:38;-3.60;99.90
42261;DHT22;27926;48.062;7.474;2022-12-18T09:06:03;-3.60;99.90
42261;DHT22;27926;48.062;7.474;2022-12-18T09:08:28;-3.70;99.90
42261;DHT22;27926;48.062;7.474;2022-12-18T09:10:53;-4.20;99.90
42261;DHT22;27926;48.062;7.474;2022-12-18T09:13:18;-3.50;99.90
42261;DHT22;27926;48.062;7.474;2022-12-18T09:15:45;-3.30;99.90
42261;DHT22;27926;48.062;7.474;2022-12-18T09:18:10;-3.20;99.90
42261;DHT22;27926;48.062;7.474;2022-12-18T09:20:35;-3.10;99.90
42261;DHT22;27926;48.062;7.474;2022-12-18T09:23:00;-3.10;99.90
42261;DHT22;27926;48.062;7.474;2022-12-18T09:25:25;-3.10;99.90
42261;DHT22;27926;48.062;7.474;2022-12-18T09:27:49;-3.00;99.90
42261;DHT22;27926;48.062;7.474;2022-12-18T09:30:14;-2.90;99.90
42261;DHT22;27926;48.062;7.474;2022-12-18T09:32:38;-2.80;99.90
42261;DHT22;27926;48.062;7.474;2022-12-18T09:35:03;-2.70;99.90
42261;DHT22;27926;48.062;7.474;2022-12-18T09:37:28;-2.60;99.90
42261;DHT22;27926;48.062;7.474;2022-12-18T09:39:52;-2.30;99.90
42261;DHT22;27926;48.062;7.474;2022-12-18T09:42:21;-2.60;99.90
42261;DHT22;27926;48.062;7.474;2022-12-18T09:44:50;-2.60;99.90
42261;DHT22;27926;48.062;7.474;2022-12-18T09:47:30;-2.40;99.90
42261;DHT22;27926;48.062;7.474;2022-12-18T09:50:04;-2.30;99.90
42261;DHT22;27926;48.062;7.474;2022-12-18T09:52:31;-2.20;99.90
42261;DHT22;27926;48.062;7.474;2022-12-18T09:55:16;-2.20;99.90
42261;DHT22;27926;48.062;7.474;2022-12-18T09:57:51;-2.10;99.90
42261;DHT22;27926;48.062;7.474;2022-12-18T10:00:19;-2.20;99.90
42261;DHT22;27926;48.062;7.474;2022-12-18T10:02:45;-2.20;99.90
42261;DHT22;27926;48.062;7.474;2022-12-18T10:05:13;-2.20;99.90
42261;DHT22;27926;48.062;7.474;2022-12-18T10:08:07;-2.10;99.90
42261;DHT22;27926;48.062;7.474;2022-12-18T10:10:46;-2.00;99.90
42261;DHT22;27926;48.062;7.474;2022-12-18T10:13:22;-2.00;99.90
42261;DHT22;27926;48.062;7.474;2022-12-18T10:21:47;-1.70;99.90
42261;DHT22;27926;48.062;7.474;2022-12-18T10:26:47;-1.60;99.90
42261;DHT22;27926;48.062;7.474;2022-12-18T10:29:13;-1.60;99.90
42261;DHT22;27926;48.062;7.474;2022-12-18T10:31:38;-1.60;99.90
42261;DHT22;27926;48.062;7.474;2022-12-18T10:34:02;-1.60;99.90
42261;DHT22;27926;48.062;7.474;2022-12-18T10:36:27;-1.50;99.90
42261;DHT22;27926;48.062;7.474;2022-12-18T10:38:52;-1.30;99.90
42261;DHT22;27926;48.062;7.474;2022-12-18T10:44:11;-1.20;99.90
42261;DHT22;27926;48.062;7.474;2022-12-18T10:46:37;-1.10;99.90
42261;DHT22;27926;48.062;7.474;2022-12-18T10:49:01;-1.00;99.90
42261;DHT22;27926;48.062;7.474;2022-12-18T10:56:38;-1.10;99.90
42261;DHT22;27926;48.062;7.474;2022-12-18T10:59:05;-1.10;99.90
42261;DHT22;27926;48.062;7.474;2022-12-18T11:04:17;-1.10;99.90
42261;DHT22;27926;48.062;7.474;2022-12-18T11:07:08;-1.10;99.90
42261;DHT22;27926;48.062;7.474;2022-12-18T11:09:36;-1.10;99.90
42261;DHT22;27926;48.062;7.474;2022-12-18T11:12:21;-1.00;99.90
42261;DHT22;27926;48.062;7.474;2022-12-18T11:14:52;-1.00;99.90
42261;DHT22;27926;48.062;7.474;2022-12-18T11:17:30;-1.20;99.90
42261;DHT22;27926;48.062;7.474;2022-12-18T11:19:57;-1.20;99.90
42261;DHT22;27926;48.062;7.474;2022-12-18T11:27:35;-0.90;99.90
42261;DHT22;27926;48.062;7.474;2022-12-18T11:30:27;-1.00;99.90
42261;DHT22;27926;48.062;7.474;2022-12-18T11:33:03;-1.10;99.90
42261;DHT22;27926;48.062;7.474;2022-12-18T11:40:45;-1.10;99.90
42261;DHT22;27926;48.062;7.474;2022-12-18T11:43:49;-1.00;99.90
42261;DHT22;27926;48.062;7.474;2022-12-18T11:46:15;-0.90;99.90
42261;DHT22;27926;48.062;7.474;2022-12-18T11:48:54;-0.80;99.90
42261;DHT22;27926;48.062;7.474;2022-12-18T11:51:34;-0.70;99.90
42261;DHT22;27926;48.062;7.474;2022-12-18T11:54:00;-0.90;99.90
42261;DHT22;27926;48.062;7.474;2022-12-18T11:56:51;-0.80;99.90
42261;DHT22;27926;48.062;7.474;2022-12-18T11:59:35;-0.70;99.90
42261;DHT22;27926;48.062;7.474;2022-12-18T12:02:32;-0.50;99.90
42261;DHT22;27926;48.062;7.474;2022-12-18T12:08:36;-0.40;99.90
42261;DHT22;27926;48.062;7.474;2022-12-18T12:22:02;-1.00;99.90
42261;DHT22;27926;48.062;7.474;2022-12-18T12:35:22;-1.10;99.90
42261;DHT22;27926;48.062;7.474;2022-12-18T12:40:22;-1.20;99.90
42261;DHT22;27926;48.062;7.474;2022-12-18T12:42:54;-1.30;99.90
42261;DHT22;27926;48.062;7.474;2022-12-18T12:50:46;-1.10;99.90
42261;DHT22;27926;48.062;7.474;2022-12-18T12:53:26;-1.20;99.90
42261;DHT22;27926;48.062;7.474;2022-12-18T12:55:52;-1.20;99.90
42261;DHT22;27926;48.062;7.474;2022-12-18T12:58:29;-1.20;99.90
42261;DHT22;27926;48.062;7.474;2022-12-18T13:01:14;-1.20;99.90
42261;DHT22;27926;48.062;7.474;2022-12-18T13:06:40;-1.20;99.90
42261;DHT22;27926;48.062;7.474;2022-12-18T13:09:06;-1.20;99.90
42261;DHT22;27926;48.062;7.474;2022-12-18T13:11:40;-1.20;99.90
42261;DHT22;27926;48.062;7.474;2022-12-18T13:14:35;-1.10;99.90
42261;DHT22;27926;48.062;7.474;2022-12-18T13:20:02;-0.90;99.90
42261;DHT22;27926;48.062;7.474;2022-12-18T13:22:35;-0.90;99.90
42261;DHT22;27926;48.062;7.474;2022-12-18T13:25:00;-0.90;99.90
42261;DHT22;27926;48.062;7.474;2022-12-18T13:43:47;-1.30;99.90
42261;DHT22;27926;48.062;7.474;2022-12-18T13:46:29;-1.20;99.90
42261;DHT22;27926;48.062;7.474;2022-12-18T13:51:31;-1.20;99.90
42261;DHT22;27926;48.062;7.474;2022-12-18T13:54:02;-1.30;99.90
42261;DHT22;27926;48.062;7.474;2022-12-18T13:56:33;-1.00;99.90
42261;DHT22;27926;48.062;7.474;2022-12-18T13:59:23;-1.30;99.90
42261;DHT22;27926;48.062;7.474;2022-12-18T14:01:52;-1.30;99.90
42261;DHT22;27926;48.062;7.474;2022-12-18T14:04:25;-1.30;99.90
42261;DHT22;27926;48.062;7.474;2022-12-18T14:06:52;-1.40;99.90
42261;DHT22;27926;48.062;7.474;2022-12-18T14:09:30;-1.40;99.90
42261;DHT22;27926;48.062;7.474;2022-12-18T14:11:55;-1.50;99.90
42261;DHT22;27926;48.062;7.474;2022-12-18T14:14:45;-1.50;99.90
42261;DHT22;27926;48.062;7.474;2022-12-18T14:17:11;-1.50;99.90
42261;DHT22;27926;48.062;7.474;2022-12-18T14:19:36;-1.50;99.90
42261;DHT22;27926;48.062;7.474;2022-12-18T14:22:01;-1.60;99.90
42261;DHT22;27926;48.062;7.474;2022-12-18T14:24:26;-1.60;99.90
42261;DHT22;27926;48.062;7.474;2022-12-18T14:26:52;-1.70;99.90
42261;DHT22;27926;48.062;7.474;2022-12-18T14:29:27;-1.70;99.90
42261;DHT22;27926;48.062;7.474;2022-12-18T14:32:15;-1.90;99.90
42261;DHT22;27926;48.062;7.474;2022-12-18T14:34:41;-1.90;99.90
42261;DHT22;27926;48.062;7.474;2022-12-18T14:37:10;-1.90;99.90
42261;DHT22;27926;48.062;7.474;2022-12-18T14:39:35;-1.90;99.90
42261;DHT22;27926;48.062;7.474;2022-12-18T14:41:59;-1.90;99.90
42261;DHT22;27926;48.062;7.474;2022-12-18T14:44:24;-1.90;99.90
42261;DHT22;27926;48.062;7.474;2022-12-18T14:46:50;-2.10;99.90
42261;DHT22;27926;48.062;7.474;2022-12-18T14:51:51;-2.10;99.90
42261;DHT22;27926;48.062;7.474;2022-12-18T14:54:18;-2.10;99.90
42261;DHT22;27926;48.062;7.474;2022-12-18T14:56:48;-2.20;99.90
42261;DHT22;27926;48.062;7.474;2022-12-18T14:59:15;-2.20;99.90
42261;DHT22;27926;48.062;7.474;2022-12-18T15:02:03;-2.20;99.90
42261;DHT22;27926;48.062;7.474;2022-12-18T15:04:32;-2.20;99.90
42261;DHT22;27926;48.062;7.474;2022-12-18T15:09:35;-2.30;99.90
42261;DHT22;27926;48.062;7.474;2022-12-18T15:12:01;-2.40;99.90
42261;DHT22;27926;48.062;7.474;2022-12-18T15:14:40;-2.40;99.90
42261;DHT22;27926;48.062;7.474;2022-12-18T15:17:14;-2.40;99.90
42261;DHT22;27926;48.062;7.474;2022-12-18T15:19:44;-2.40;99.90
42261;DHT22;27926;48.062;7.474;2022-12-18T15:22:29;-2.40;99.90
42261;DHT22;27926;48.062;7.474;2022-12-18T15:24:56;-2.40;99.90
42261;DHT22;27926;48.062;7.474;2022-12-18T15:27:35;-2.40;99.90
42261;DHT22;27926;48.062;7.474;2022-12-18T15:32:34;-2.50;99.90
42261;DHT22;27926;48.062;7.474;2022-12-18T15:37:38;-2.50;99.90
42261;DHT22;27926;48.062;7.474;2022-12-18T15:40:04;-2.60;99.90
42261;DHT22;27926;48.062;7.474;2022-12-18T15:42:29;-2.60;99.90
42261;DHT22;27926;48.062;7.474;2022-12-18T15:45:12;-2.60;99.90
42261;DHT22;27926;48.062;7.474;2022-12-18T15:47:37;-2.60;99.90
42261;DHT22;27926;48.062;7.474;2022-12-18T15:50:02;-2.60;99.90
42261;DHT22;27926;48.062;7.474;2022-12-18T15:52:27;-2.60;99.90
42261;DHT22;27926;48.062;7.474;2022-12-18T15:54:51;-2.70;99.90
42261;DHT22;27926;48.062;7.474;2022-12-18T15:57:34;-2.60;99.90
42261;DHT22;27926;48.062;7.474;2022-12-18T15:59:59;-2.60;99.90
42261;DHT22;27926;48.062;7.474;2022-12-18T16:02:25;-2.60;99.90
42261;DHT22;27926;48.062;7.474;2022-12-18T16:04:52;-2.60;99.90
42261;DHT22;27926;48.062;7.474;2022-12-18T16:07:19;-2.70;99.90
42261;DHT22;27926;48.062;7.474;2022-12-18T16:09:43;-2.60;99.90
42261;DHT22;27926;48.062;7.474;2022-12-18T16:12:16;-2.60;99.90
42261;DHT22;27926;48.062;7.474;2022-12-18T16:14:41;-2.70;99.90
42261;DHT22;27926;48.062;7.474;2022-12-18T16:17:10;-2.70;99.90
42261;DHT22;27926;48.062;7.474;2022-12-18T16:19:34;-1.80;99.90
42261;DHT22;27926;48.062;7.474;2022-12-18T16:21:59;-2.70;99.90
42261;DHT22;27926;48.062;7.474;2022-12-18T16:24:26;-2.70;99.90
42261;DHT22;27926;48.062;7.474;2022-12-18T16:26:52;-2.80;99.90
42261;DHT22;27926;48.062;7.474;2022-12-18T16:29:18;-2.80;99.90
42261;DHT22;27926;48.062;7.474;2022-12-18T16:31:42;-2.80;99.90
42261;DHT22;27926;48.062;7.474;2022-12-18T16:34:11;-2.80;99.90
42261;DHT22;27926;48.062;7.474;2022-12-18T16:36:35;-2.90;99.90
42261;DHT22;27926;48.062;7.474;2022-12-18T16:39:03;-2.90;99.90
42261;DHT22;27926;48.062;7.474;2022-12-18T16:41:28;-2.90;99.90
42261;DHT22;27926;48.062;7.474;2022-12-18T16:43:55;-2.90;99.90
42261;DHT22;27926;48.062;7.474;2022-12-18T16:46:20;-2.90;99.90
42261;DHT22;27926;48.062;7.474;2022-12-18T16:48:44;-2.80;99.90
42261;DHT22;27926;48.062;7.474;2022-12-18T16:51:09;-2.90;99.90
42261;DHT22;27926;48.062;7.474;2022-12-18T16:53:33;-2.80;99.90
42261;DHT22;27926;48.062;7.474;2022-12-18T16:55:58;-2.80;99.90
42261;DHT22;27926;48.062;7.474;2022-12-18T16:58:23;-2.80;99.90
42261;DHT22;27926;48.062;7.474;2022-12-18T17:00:47;-2.70;99.90
42261;DHT22;27926;48.062;7.474;2022-12-18T17:03:15;-2.80;99.90
42261;DHT22;27926;48.062;7.474;2022-12-18T17:05:39;-2.80;99.90
42261;DHT22;27926;48.062;7.474;2022-12-18T17:08:04;-2.70;99.90
42261;DHT22;27926;48.062;7.474;2022-12-18T17:10:29;-2.70;99.90
42261;DHT22;27926;48.062;7.474;2022-12-18T17:12:53;-2.70;99.90
42261;DHT22;27926;48.062;7.474;2022-12-18T17:15:18;-2.70;99.90
42261;DHT22;27926;48.062;7.474;2022-12-18T17:17:42;-2.60;99.90
42261;DHT22;27926;48.062;7.474;2022-12-18T17:20:08;-2.60;99.90
42261;DHT22;27926;48.062;7.474;2022-12-18T17:22:32;-2.60;99.90
42261;DHT22;27926;48.062;7.474;2022-12-18T17:24:57;-2.60;99.90
42261;DHT22;27926;48.062;7.474;2022-12-18T17:27:22;-2.60;99.90
42261;DHT22;27926;48.062;7.474;2022-12-18T17:29:46;-2.60;99.90